Impacts TAF Board INFO
FOR SITUATIONAL AWARENESS. NOT TO BE USED FOR FLIGHT PLANNING PURPOSES.
IDs:

KTPA - Tampa Intl Arpt, FL, US

Issued at 1501 UTC 20 May 2018
Updated at 1532 UTC 20 May 2018
Potential Impact None Slight Moderate High
Time<<21/16Z 21/17Z 21/18Z 21/19Z 21/20Z 21/21Z 21/22Z 21/23Z 22/00Z 22/01Z 22/02Z 22/03Z 22/04Z
Type PRVL PRVL
VIS >6 >6
CIG 50 50
Cover OVC OVC
FltCat VFR VFR
WX -- --
WDir 90 90
WSpd 5 5
WGst -- --

Raw TAF
KTPA 201501Z 2015/2118 06007KT 2SM SHRA BKN008 BKN015 OVC040
  FM201700 11008KT P6SM VCTS BKN025CB OVC050
  FM210100 10005KT P6SM VCSH BKN025 OVC050
  FM210600 09005KT P6SM SCT025 OVC050


METAR Board
Radar Display
Forecast Discussion

FOR SITUATIONAL AWARENESS. NOT TO BE USED FOR FLIGHT PLANNING PURPOSES.